Time;durP1;ratioP1;P1;durP2;ratioP2;P2;SDS_P1;SDS_P2;PMS_P1;PMS_P2;Temp;Humidity;BMP_temperature;BMP_pressure;BME280_temperature;BME280_humidity;BME280_pressure;Samples;Min_cycle;Max_cycle;Signal;HPM_P1;HPM_P2
2021/12/29 00:01:21;;;;;;;14.13;4.00;;;;;;;11.64;76.30;100218.75;4933008;28;20158;-59
2021/12/29 00:03:46;;;;;;;17.92;4.10;;;;;;;11.59;76.26;100230.06;4939789;28;20054;-60
2021/12/29 00:06:12;;;;;;;14.07;4.20;;;;;;;11.56;76.07;100236.16;4940101;28;20038;-59
2021/12/29 00:08:38;;;;;;;16.08;3.70;;;;;;;11.60;76.41;100222.22;4941958;28;20475;-59
2021/12/29 00:11:04;;;;;;;14.70;3.70;;;;;;;11.61;75.88;100234.41;4941904;28;20129;-59
2021/12/29 00:13:30;;;;;;;17.92;4.00;;;;;;;11.62;76.30;100240.50;4958484;28;20809;-60
2021/12/29 00:16:00;;;;;;;18.27;3.70;;;;;;;11.60;76.22;100237.03;4949502;28;20137;-59
2021/12/29 00:18:27;;;;;;;14.43;3.75;;;;;;;11.62;76.01;100243.13;4936223;28;20510;-61
2021/12/29 00:20:53;;;;;;;14.30;3.70;;;;;;;11.63;76.27;100257.91;4939316;28;20051;-60
2021/12/29 00:23:24;;;;;;;17.05;3.60;;;;;;;11.65;76.15;100262.25;4936929;28;20420;-59
2021/12/29 00:25:50;;;;;;;15.68;3.67;;;;;;;11.62;76.07;100262.28;4938539;28;20090;-59
2021/12/29 00:28:16;;;;;;;12.55;3.72;;;;;;;11.58;75.99;100260.53;4940001;28;20169;-58
2021/12/29 00:30:42;;;;;;;16.85;3.90;;;;;;;11.62;76.18;100270.09;4942366;28;20153;-60
2021/12/29 00:33:08;;;;;;;13.65;3.67;;;;;;;11.58;76.00;100268.38;4942030;28;20552;-59
2021/12/29 00:35:34;;;;;;;16.13;4.18;;;;;;;11.60;76.02;100273.56;4928448;28;20047;-59
2021/12/29 00:38:03;;;;;;;14.98;3.28;;;;;;;11.63;75.96;100270.97;4942069;28;20389;-59
2021/12/29 00:40:29;;;;;;;16.23;3.40;;;;;;;11.51;76.55;100274.47;4939158;28;20070;-60
2021/12/29 00:42:55;;;;;;;14.27;3.30;;;;;;;11.53;76.26;100277.91;4940077;28;20676;-59
2021/12/29 00:45:20;;;;;;;11.93;3.13;;;;;;;11.58;75.92;100285.78;4937322;28;20045;-59
2021/12/29 00:47:46;;;;;;;12.90;2.90;;;;;;;11.52;76.45;100281.44;4935913;28;20494;-59
2021/12/29 00:50:14;;;;;;;16.05;3.10;;;;;;;11.53;76.18;100280.53;4937616;28;20054;-59
2021/12/29 00:52:41;;;;;;;10.93;3.00;;;;;;;11.55;76.08;100296.19;4939706;28;20088;-59
2021/12/29 00:55:07;;;;;;;14.13;3.03;;;;;;;11.55;76.11;100283.16;4939301;28;20101;-59
2021/12/29 00:57:32;;;;;;;11.25;2.88;;;;;;;11.56;75.65;100301.44;4935323;28;20121;-60
2021/12/29 00:59:59;;;;;;;14.65;2.80;;;;;;;11.55;75.58;100309.25;4941689;28;20039;-60
2021/12/29 01:02:25;;;;;;;7.80;2.30;;;;;;;11.58;75.76;100317.09;4935531;28;20058;-59
2021/12/29 01:04:50;;;;;;;9.73;2.53;;;;;;;11.64;75.61;100325.81;4944374;28;20569;-59
2021/12/29 01:07:17;;;;;;;9.43;3.50;;;;;;;11.57;75.70;100334.50;4945390;28;20130;-60
2021/12/29 01:09:44;;;;;;;10.23;3.22;;;;;;;11.60;75.49;100346.66;4939109;28;20426;-59
2021/12/29 01:12:10;;;;;;;8.70;3.20;;;;;;;11.58;75.60;100346.69;4944938;28;20130;-59
2021/12/29 01:14:40;;;;;;;9.05;2.42;;;;;;;11.58;75.54;100354.53;4936254;28;20394;-59
2021/12/29 01:17:06;;;;;;;11.63;2.85;;;;;;;11.56;75.56;100343.19;4945869;28;20117;-59
2021/12/29 01:19:31;;;;;;;7.53;2.60;;;;;;;11.53;75.89;100351.00;4949163;28;20043;-60
2021/12/29 01:21:59;;;;;;;9.65;2.35;;;;;;;11.61;75.34;100357.13;4941514;28;20066;-60
2021/12/29 01:24:27;;;;;;;11.43;2.63;;;;;;;11.55;75.61;100371.91;4944096;28;20772;-59
2021/12/29 01:26:53;;;;;;;10.50;2.60;;;;;;;11.50;75.75;100369.31;4942188;28;20038;-60
2021/12/29 01:29:19;;;;;;;10.30;2.60;;;;;;;11.59;75.78;100377.13;4939065;28;20096;-59
2021/12/29 01:31:44;;;;;;;9.45;2.90;;;;;;;11.60;75.74;100380.63;4936693;28;20573;-59
2021/12/29 01:34:10;;;;;;;9.23;2.78;;;;;;;11.58;75.52;100391.06;4946069;28;20042;-59
2021/12/29 01:36:37;;;;;;;12.13;2.97;;;;;;;11.55;76.02;100391.06;4947231;28;20046;-59
2021/12/29 01:39:06;;;;;;;8.02;2.35;;;;;;;11.54;75.86;100388.44;4944136;28;20109;-60
2021/12/29 01:41:32;;;;;;;15.55;2.95;;;;;;;11.55;75.79;100398.88;4929471;28;20130;-60
2021/12/29 01:43:57;;;;;;;11.13;2.58;;;;;;;11.56;75.85;100387.59;4944556;28;20062;-60
2021/12/29 01:46:22;;;;;;;9.55;2.22;;;;;;;11.64;75.60;100398.03;4947464;28;20078;-59
2021/12/29 01:48:48;;;;;;;6.15;2.00;;;;;;;11.62;75.56;100405.88;4939841;28;20221;-59
2021/12/29 01:51:17;;;;;;;11.07;2.00;;;;;;;11.55;75.69;100408.47;4948601;28;20039;-59
2021/12/29 01:53:48;;;;;;;7.88;2.10;;;;;;;11.56;75.68;100405.84;4938838;28;20070;-59
2021/12/29 01:56:14;;;;;;;10.82;2.30;;;;;;;11.51;76.06;100407.59;4942578;28;20050;-59
2021/12/29 01:58:40;;;;;;;8.23;2.35;;;;;;;11.54;76.13;100406.72;4941359;28;20435;-60
2021/12/29 02:01:05;;;;;;;8.48;2.60;;;;;;;11.65;75.93;100415.44;4936846;28;20136;-60
2021/12/29 02:03:31;;;;;;;10.75;2.95;;;;;;;11.55;76.32;100416.28;4934033;28;20047;-59
2021/12/29 02:05:56;;;;;;;11.52;3.00;;;;;;;11.58;75.93;100419.78;4940588;28;20034;-59
2021/12/29 02:08:23;;;;;;;12.82;2.92;;;;;;;11.54;76.42;100424.97;4943769;28;20743;-59
2021/12/29 02:10:50;;;;;;;10.50;3.03;;;;;;;11.54;76.47;100425.84;4937642;28;20039;-58
2021/12/29 02:13:17;;;;;;;13.55;3.33;;;;;;;11.62;76.05;100429.38;4940184;28;20479;-60
2021/12/29 02:15:42;;;;;;;12.18;3.25;;;;;;;11.67;75.97;100429.38;4940102;28;20077;-60
2021/12/29 02:18:14;;;;;;;14.35;3.50;;;;;;;11.61;76.02;100435.44;4945292;28;20138;-60
2021/12/29 02:20:45;;;;;;;15.63;3.55;;;;;;;11.59;76.16;100431.97;4944728;28;20042;-60
2021/12/29 02:23:16;;;;;;;13.52;3.58;;;;;;;11.60;76.34;100436.31;4946005;28;20046;-60
2021/12/29 02:25:49;;;;;;;13.82;3.58;;;;;;;11.57;76.16;100446.75;4938440;28;20053;-60
2021/12/29 02:28:17;;;;;;;13.20;3.45;;;;;;;11.60;76.43;100438.94;4946326;28;20153;-60
2021/12/29 02:30:43;;;;;;;14.48;3.63;;;;;;;11.57;76.04;100428.50;4943825;28;20046;-60
2021/12/29 02:33:13;;;;;;;15.75;4.20;;;;;;;11.51;76.61;100431.09;4942219;28;20038;-60
2021/12/29 02:35:42;;;;;;;16.88;4.40;;;;;;;11.56;76.46;100431.97;4936780;28;20582;-59
2021/12/29 02:38:11;;;;;;;15.38;4.72;;;;;;;11.55;76.56;100440.66;4940495;28;20398;-60
2021/12/29 02:40:37;;;;;;;15.13;4.60;;;;;;;11.56;76.22;100444.16;4941640;28;20046;-60
2021/12/29 02:43:02;;;;;;;25.23;5.00;;;;;;;11.51;76.42;100451.97;4941225;28;20383;-60
2021/12/29 02:45:29;;;;;;;17.85;4.60;;;;;;;11.49;76.89;100453.69;4932035;28;20215;-60
2021/12/29 02:47:55;;;;;;;20.75;5.22;;;;;;;11.52;76.70;100452.84;4946640;28;20047;-60
2021/12/29 02:50:21;;;;;;;16.50;4.63;;;;;;;11.52;76.49;100464.16;4938237;28;20860;-60
2021/12/29 02:52:47;;;;;;;17.45;4.25;;;;;;;11.54;76.51;100469.38;4936222;28;20054;-60
2021/12/29 02:55:13;;;;;;;17.25;3.72;;;;;;;11.50;76.73;100468.50;4945389;28;20039;-59
2021/12/29 02:57:38;;;;;;;14.48;3.42;;;;;;;11.47;76.64;100467.59;4953175;28;20340;-60
2021/12/29 03:00:05;;;;;;;11.95;3.08;;;;;;;11.56;76.27;100472.88;4944897;28;20150;-60
2021/12/29 03:02:30;;;;;;;14.40;3.95;;;;;;;11.53;76.47;100491.97;4938634;28;20066;-59
2021/12/29 03:04:59;;;;;;;19.73;4.70;;;;;;;11.52;76.41;100487.66;4941244;28;20233;-59
2021/12/29 03:07:24;;;;;;;16.52;4.80;;;;;;;11.50;76.72;100498.94;4939158;28;20073;-60
2021/12/29 03:09:50;;;;;;;16.98;4.90;;;;;;;11.48;76.81;100498.94;4954535;28;20482;-59
2021/12/29 03:12:16;;;;;;;15.93;4.93;;;;;;;11.56;76.42;100504.19;4941964;28;20395;-59
2021/12/29 03:14:56;;;;;;;22.48;5.57;;;;;;;11.50;76.53;100510.25;4942494;28;20042;-60
2021/12/29 03:17:22;;;;;;;24.42;5.25;;;;;;;11.51;76.55;100513.75;4930462;28;20045;-61
2021/12/29 03:19:47;;;;;;;17.08;5.40;;;;;;;11.45;76.63;100519.81;4939666;28;20494;-60
2021/12/29 03:22:13;;;;;;;19.33;5.47;;;;;;;11.48;76.88;100524.16;4941834;28;20077;-59
2021/12/29 03:24:38;;;;;;;14.73;4.75;;;;;;;11.45;76.62;100518.94;4957871;28;20058;-59
2021/12/29 03:27:04;;;;;;;25.88;5.50;;;;;;;11.46;76.83;100515.47;4939065;28;20392;-59
2021/12/29 03:29:29;;;;;;;18.38;4.13;;;;;;;11.47;76.39;100519.81;4938781;28;20043;-60
2021/12/29 03:31:54;;;;;;;16.05;4.07;;;;;;;11.47;76.79;100525.91;4943127;28;20343;-60
2021/12/29 03:34:20;;;;;;;20.98;4.15;;;;;;;11.44;76.67;100530.25;4942366;28;20038;-59
2021/12/29 03:36:45;;;;;;;21.63;4.28;;;;;;;11.40;76.93;100545.88;4956065;28;20043;-60
2021/12/29 03:39:11;;;;;;;26.52;4.20;;;;;;;11.41;76.90;100551.97;4941861;28;20062;-61
2021/12/29 03:41:36;;;;;;;14.65;3.20;;;;;;;11.46;76.70;100552.03;4936650;28;20480;-60
2021/12/29 03:44:02;;;;;;;18.40;3.60;;;;;;;11.46;76.43;100565.06;4938098;28;20346;-60
2021/12/29 03:46:28;;;;;;;19.92;3.45;;;;;;;11.49;76.36;100560.72;4937979;28;20126;-61
2021/12/29 03:48:54;;;;;;;15.77;3.67;;;;;;;11.38;76.84;100560.69;4942916;28;20577;-60
2021/12/29 03:51:19;;;;;;;16.70;3.53;;;;;;;11.37;76.73;100560.66;4941347;28;20142;-61
2021/12/29 03:53:45;;;;;;;14.88;3.80;;;;;;;11.32;76.91;100551.94;4927015;28;20374;-59
2021/12/29 03:56:10;;;;;;;17.35;3.65;;;;;;;11.36;76.69;100557.19;4941011;28;20039;-59
2021/12/29 03:58:36;;;;;;;13.70;3.10;;;;;;;11.35;76.57;100558.03;4937800;28;20473;-59
2021/12/29 04:01:08;;;;;;;15.25;3.10;;;;;;;11.39;76.51;100558.94;4945837;28;20074;-59
2021/12/29 04:03:33;;;;;;;14.52;2.90;;;;;;;11.43;76.08;100567.66;4935052;28;20042;-61
2021/12/29 04:05:59;;;;;;;15.38;3.25;;;;;;;11.39;76.43;100559.81;4941489;28;20406;-61
2021/12/29 04:08:24;;;;;;;13.25;2.80;;;;;;;11.46;76.33;100562.47;4943147;28;20054;-60
2021/12/29 04:10:50;;;;;;;16.35;3.25;;;;;;;11.37;76.56;100568.50;4944834;28;20031;-59
2021/12/29 04:13:19;;;;;;;14.48;2.90;;;;;;;11.29;76.36;100564.97;4941289;28;20149;-59
2021/12/29 04:15:45;;;;;;;12.40;2.80;;;;;;;11.35;76.60;100563.25;4938671;28;20050;-59
2021/12/29 04:18:26;;;;;;;19.58;3.20;;;;;;;11.37;76.13;100563.28;4939767;28;20046;-59
2021/12/29 04:20:57;;;;;;;20.42;3.40;;;;;;;11.32;76.51;100562.38;4940924;28;20157;-59
2021/12/29 04:23:32;;;;;;;14.13;3.45;;;;;;;11.29;76.37;100571.06;4936339;28;20045;-60
2021/12/29 04:26:00;;;;;;;17.33;3.72;;;;;;;11.25;76.72;100581.47;4939681;28;20090;-59
2021/12/29 04:28:26;;;;;;;20.05;4.13;;;;;;;11.30;76.78;100583.25;4942591;28;20038;-59
2021/12/29 04:31:06;;;;;;;13.93;3.83;;;;;;;11.27;76.50;100588.47;4956477;28;20046;-60
2021/12/29 04:33:32;;;;;;;15.30;3.90;;;;;;;11.28;76.70;100595.41;4931879;28;20039;-59
2021/12/29 04:35:58;;;;;;;18.25;3.63;;;;;;;11.15;76.93;100601.44;4941392;28;20597;-60
2021/12/29 04:38:24;;;;;;;16.67;4.38;;;;;;;11.21;77.00;100604.09;4940294;28;20116;-59
2021/12/29 04:40:51;;;;;;;13.70;3.97;;;;;;;11.28;76.33;100613.66;4938605;28;20034;-59
2021/12/29 04:43:17;;;;;;;16.92;3.90;;;;;;;11.25;76.64;100608.44;4940014;28;20134;-59
2021/12/29 04:45:43;;;;;;;15.48;4.25;;;;;;;11.24;76.32;100613.66;4936587;28;20228;-59
2021/12/29 04:48:13;;;;;;;15.48;4.32;;;;;;;11.21;76.39;100614.53;4939273;28;20039;-60
2021/12/29 04:50:40;;;;;;;13.65;4.10;;;;;;;11.21;76.50;100621.47;4942403;28;20090;-60
2021/12/29 04:53:07;;;;;;;12.20;4.05;;;;;;;11.22;76.53;100623.22;4934355;28;20704;-59
2021/12/29 04:55:33;;;;;;;19.13;4.32;;;;;;;11.27;76.24;100621.50;4937872;28;20046;-60
2021/12/29 04:58:00;;;;;;;19.50;4.43;;;;;;;11.15;76.58;100624.03;4931317;28;20134;-60
2021/12/29 05:00:28;;;;;;;16.13;4.03;;;;;;;11.20;76.50;100620.59;4942435;28;20042;-60
2021/12/29 05:02:55;;;;;;;11.07;4.20;;;;;;;11.21;76.48;100627.56;4936529;28;20050;-60
2021/12/29 05:08:24;;;;;;;15.73;4.80;;;;;;;11.22;76.33;100628.44;4935706;28;20043;-61
2021/12/29 05:08:26;;;;;;;15.75;4.38;;;;;;;11.20;76.41;100627.56;4936222;28;20623;-60
2021/12/29 05:11:03;;;;;;;18.40;4.30;;;;;;;11.22;76.22;100621.47;4938561;28;20105;-60
2021/12/29 05:13:31;;;;;;;16.13;4.80;;;;;;;11.18;76.41;100626.66;4938852;28;20125;-59
2021/12/29 05:15:57;;;;;;;15.57;5.03;;;;;;;11.23;76.13;100631.03;4938641;28;20023;-59
2021/12/29 05:18:24;;;;;;;15.85;4.60;;;;;;;11.27;76.38;100640.66;4942965;28;20041;-59
2021/12/29 05:20:50;;;;;;;15.98;4.95;;;;;;;11.22;75.95;100631.91;4940705;28;20066;-59
2021/12/29 05:23:17;;;;;;;13.77;5.10;;;;;;;11.23;75.98;100630.16;4943571;28;20174;-61
2021/12/29 05:25:42;;;;;;;16.10;4.32;;;;;;;11.27;76.25;100640.66;4932034;28;20034;-60
2021/12/29 05:28:08;;;;;;;11.95;5.00;;;;;;;11.17;75.98;100636.22;4939045;28;20469;-60
2021/12/29 05:30:34;;;;;;;19.15;4.88;;;;;;;11.15;76.39;100629.25;4929998;28;20489;-60
2021/12/29 05:33:00;;;;;;;16.10;5.18;;;;;;;11.13;76.10;100637.06;4941024;28;20045;-60
2021/12/29 05:35:26;;;;;;;17.08;5.88;;;;;;;11.12;76.45;100637.03;4935696;28;20038;-60
2021/12/29 05:37:52;;;;;;;14.07;4.85;;;;;;;11.10;76.31;100644.84;4939043;28;20459;-60
2021/12/29 05:40:17;;;;;;;15.68;5.38;;;;;;;11.09;76.21;100635.31;4937450;28;20038;-59
2021/12/29 05:42:43;;;;;;;19.92;4.97;;;;;;;11.11;76.46;100633.56;4942118;28;20504;-61
2021/12/29 05:45:11;;;;;;;12.43;5.07;;;;;;;11.07;76.47;100637.03;4937836;28;20042;-61
2021/12/29 05:47:36;;;;;;;12.20;4.95;;;;;;;11.07;76.17;100641.38;4928856;28;20039;-60
2021/12/29 05:50:06;;;;;;;11.50;5.18;;;;;;;11.10;76.12;100638.78;4941189;28;20047;-61
2021/12/29 05:52:32;;;;;;;12.80;5.35;;;;;;;11.06;76.20;100637.00;4939950;28;20394;-61
2021/12/29 05:54:57;;;;;;;14.27;5.30;;;;;;;11.01;76.54;100647.41;4937999;28;20051;-60
2021/12/29 05:57:23;;;;;;;11.57;5.50;;;;;;;11.03;76.64;100656.13;4934924;28;20106;-59
2021/12/29 05:59:48;;;;;;;18.70;5.30;;;;;;;11.06;76.45;100656.13;4942739;28;20836;-60
2021/12/29 06:02:13;;;;;;;19.77;6.10;;;;;;;11.06;76.49;100655.25;4934494;28;20065;-60
2021/12/29 06:04:39;;;;;;;17.73;5.25;;;;;;;11.05;76.29;100658.72;4941723;28;20258;-60
2021/12/29 06:07:04;;;;;;;14.93;5.78;;;;;;;11.06;76.35;100652.66;4940272;28;20074;-61
2021/12/29 06:09:30;;;;;;;16.05;5.38;;;;;;;11.07;76.10;100662.22;4930916;28;20387;-61
2021/12/29 06:11:55;;;;;;;12.25;5.38;;;;;;;11.09;76.22;100657.91;4941507;28;20065;-59
2021/12/29 06:14:21;;;;;;;13.18;5.70;;;;;;;11.08;76.13;100664.88;4942500;28;20066;-60
2021/12/29 06:16:46;;;;;;;13.38;5.28;;;;;;;11.09;76.40;100661.41;4946371;28;20065;-59
2021/12/29 06:19:12;;;;;;;13.65;5.78;;;;;;;11.08;76.39;100666.59;4937071;28;20042;-59
2021/12/29 06:21:37;;;;;;;15.20;5.53;;;;;;;11.05;76.54;100661.34;4936905;28;20490;-60
2021/12/29 06:24:03;;;;;;;12.73;4.70;;;;;;;11.06;76.44;100656.13;4940950;28;20046;-59
2021/12/29 06:26:28;;;;;;;14.60;4.72;;;;;;;11.12;76.27;100658.78;4943476;28;20287;-60
2021/12/29 06:28:53;;;;;;;10.63;5.00;;;;;;;11.05;76.31;100662.22;4941747;28;20497;-60
2021/12/29 06:31:19;;;;;;;16.20;5.20;;;;;;;11.07;76.46;100676.16;4940088;28;20055;-59
2021/12/29 06:33:46;;;;;;;10.00;4.75;;;;;;;11.04;76.27;100670.91;4939537;28;20800;-60
2021/12/29 06:36:11;;;;;;;13.35;4.60;;;;;;;11.08;75.94;100671.81;4946298;28;20407;-60
2021/12/29 06:38:37;;;;;;;11.48;4.57;;;;;;;11.05;75.97;100670.03;4940689;28;20117;-59
2021/12/29 06:41:02;;;;;;;9.68;4.35;;;;;;;11.05;76.34;100675.25;4946474;28;20098;-59
2021/12/29 06:43:28;;;;;;;10.02;3.90;;;;;;;11.07;76.26;100676.16;4930920;28;20932;-60
2021/12/29 06:45:53;;;;;;;9.93;4.20;;;;;;;10.98;76.13;100676.06;4938996;28;20118;-60
2021/12/29 06:48:19;;;;;;;12.52;4.30;;;;;;;10.96;75.95;100675.19;4943476;28;20498;-60
2021/12/29 06:50:45;;;;;;;9.13;4.28;;;;;;;11.01;75.70;100690.88;4943092;28;20608;-60
2021/12/29 06:53:11;;;;;;;13.30;4.28;;;;;;;10.98;75.85;100689.97;4936031;28;20110;-60
2021/12/29 06:55:36;;;;;;;13.13;4.10;;;;;;;11.01;76.24;100690.88;4940044;28;21280;-59
2021/12/29 06:58:02;;;;;;;9.35;4.40;;;;;;;10.97;76.05;100693.47;4947050;28;20042;-59
2021/12/29 07:00:27;;;;;;;9.52;4.35;;;;;;;10.96;75.83;100689.13;4939557;28;20720;-60
2021/12/29 07:02:53;;;;;;;11.30;4.00;;;;;;;11.05;75.79;100693.50;4941372;28;20153;-60
2021/12/29 07:05:19;;;;;;;10.15;4.20;;;;;;;11.09;75.76;100705.75;4939133;28;20126;-60
2021/12/29 07:07:46;;;;;;;13.93;4.60;;;;;;;11.05;75.54;100713.50;4944019;28;20054;-62
2021/12/29 07:10:11;;;;;;;10.65;5.07;;;;;;;11.05;75.53;100711.78;4944224;28;20133;-59
2021/12/29 07:12:37;;;;;;;10.70;5.03;;;;;;;11.04;75.44;100711.78;4943038;28;20051;-59
2021/12/29 07:15:02;;;;;;;10.93;5.38;;;;;;;11.01;75.44;100720.44;4945012;28;20129;-61
2021/12/29 07:17:28;;;;;;;11.75;5.38;;;;;;;11.02;75.97;100727.41;4933713;28;20149;-61
2021/12/29 07:19:53;;;;;;;14.32;5.55;;;;;;;10.99;75.80;100725.66;4941022;28;20043;-60
2021/12/29 07:22:18;;;;;;;14.68;5.82;;;;;;;11.00;75.81;100729.13;4940169;28;20134;-60
2021/12/29 07:24:44;;;;;;;14.32;5.80;;;;;;;11.01;75.40;100728.28;4940084;28;20043;-60
2021/12/29 07:27:09;;;;;;;17.00;6.22;;;;;;;10.99;75.53;100730.88;4940298;28;20789;-60
2021/12/29 07:29:37;;;;;;;14.38;6.13;;;;;;;10.99;75.60;100729.97;4936779;28;20141;-59
2021/12/29 07:32:03;;;;;;;14.68;6.00;;;;;;;11.07;75.70;100735.28;4942799;28;20369;-60
2021/12/29 07:34:28;;;;;;;14.38;5.85;;;;;;;11.03;75.83;100723.97;4939803;28;20035;-59
2021/12/29 07:36:54;;;;;;;17.25;6.32;;;;;;;11.02;75.85;100726.53;4938802;28;20050;-60
2021/12/29 07:39:20;;;;;;;12.90;5.72;;;;;;;11.02;75.90;100726.53;4936516;28;20047;-59
2021/12/29 07:41:46;;;;;;;15.68;6.80;;;;;;;11.02;75.98;100719.59;4942814;28;23098;-60
2021/12/29 07:44:13;;;;;;;17.25;6.32;;;;;;;11.00;76.07;100718.69;4942850;28;20047;-60
2021/12/29 07:46:38;;;;;;;12.13;6.03;;;;;;;11.03;76.02;100713.53;4939157;28;20106;-60
2021/12/29 07:49:04;;;;;;;14.00;6.35;;;;;;;10.99;75.98;100712.59;4936286;28;20050;-60
2021/12/29 07:51:30;;;;;;;14.68;6.95;;;;;;;10.99;75.94;100716.94;4935654;28;20490;-59
2021/12/29 07:53:56;;;;;;;16.70;7.10;;;;;;;10.99;76.18;100715.22;4938389;28;20038;-60
2021/12/29 07:56:22;;;;;;;18.98;7.57;;;;;;;10.97;76.35;100708.25;4943026;28;20149;-60
2021/12/29 07:58:48;;;;;;;17.85;7.90;;;;;;;10.98;76.26;100709.97;4941861;28;20049;-61
2021/12/29 08:01:13;;;;;;;15.30;7.63;;;;;;;10.96;76.25;100709.97;4942346;28;20066;-60
2021/12/29 08:03:39;;;;;;;15.43;7.88;;;;;;;10.96;75.99;100716.94;4933817;28;20496;-60
2021/12/29 08:06:05;;;;;;;15.05;7.53;;;;;;;10.99;76.44;100719.56;4941297;28;20145;-60
2021/12/29 08:08:30;;;;;;;12.20;6.78;;;;;;;11.00;76.17;100723.91;4938081;28;20230;-59
2021/12/29 08:10:56;;;;;;;16.13;7.63;;;;;;;11.01;76.08;100720.44;4939418;28;20070;-61
2021/12/29 08:13:22;;;;;;;18.58;8.68;;;;;;;10.99;76.12;100724.75;4939682;28;20457;-61
2021/12/29 08:15:47;;;;;;;19.80;9.43;;;;;;;10.97;76.31;100723.91;4936755;28;20038;-59
2021/12/29 08:18:13;;;;;;;20.63;9.90;;;;;;;10.98;76.53;100729.09;4939838;28;20046;-60
2021/12/29 08:20:38;;;;;;;20.50;10.27;;;;;;;10.98;76.44;100726.50;4937906;28;20319;-59
2021/12/29 08:23:04;;;;;;;22.52;9.57;;;;;;;10.99;76.04;100716.94;4941155;28;20098;-60
2021/12/29 08:25:30;;;;;;;20.70;9.52;;;;;;;10.95;76.04;100716.06;4936465;28;20034;-61
2021/12/29 08:27:56;;;;;;;20.50;9.43;;;;;;;10.98;76.08;100721.28;4940969;28;20125;-61
2021/12/29 08:30:21;;;;;;;21.23;9.57;;;;;;;10.99;76.43;100719.56;4935872;28;20548;-60
2021/12/29 08:32:47;;;;;;;24.02;10.13;;;;;;;10.98;76.33;100721.28;4940970;28;20061;-59
2021/12/29 08:35:13;;;;;;;20.00;9.32;;;;;;;11.03;76.21;100733.50;4933098;28;20043;-60
2021/12/29 08:37:38;;;;;;;19.98;9.25;;;;;;;11.05;76.44;100739.59;4935186;28;20174;-60
2021/12/29 08:40:07;;;;;;;19.60;9.18;;;;;;;11.05;76.43;100737.00;4936450;28;20065;-60
2021/12/29 08:42:33;;;;;;;17.20;9.32;;;;;;;11.03;76.08;100739.59;4937720;28;20046;-60
2021/12/29 08:44:58;;;;;;;19.83;10.13;;;;;;;11.01;75.97;100736.09;4939307;28;20485;-61
2021/12/29 08:47:24;;;;;;;18.02;9.38;;;;;;;11.02;76.09;100735.25;4931067;28;20058;-60
2021/12/29 08:49:49;;;;;;;22.45;10.18;;;;;;;11.01;75.89;100736.09;4938261;28;20034;-60
2021/12/29 08:52:14;;;;;;;18.10;9.90;;;;;;;11.01;75.83;100725.66;4937379;28;20525;-59
2021/12/29 08:54:40;;;;;;;23.38;10.00;;;;;;;10.95;76.13;100728.22;4940159;28;20042;-60
2021/12/29 08:57:06;;;;;;;23.15;10.38;;;;;;;10.91;75.81;100716.91;4941064;28;20091;-60
2021/12/29 08:59:31;;;;;;;21.48;10.45;;;;;;;10.83;75.80;100712.44;4934597;28;20541;-60
2021/12/29 09:01:57;;;;;;;22.10;9.45;;;;;;;10.81;75.58;100711.56;4941811;28;20045;-60
2021/12/29 09:04:22;;;;;;;15.00;8.95;;;;;;;10.87;75.57;100706.41;4937710;28;20038;-60
2021/12/29 09:06:48;;;;;;;18.33;8.63;;;;;;;10.87;75.67;100709.00;4942738;28;20481;-60
2021/12/29 09:09:14;;;;;;;16.77;8.20;;;;;;;10.84;76.23;100715.09;4943669;28;20163;-60
2021/12/29 09:11:39;;;;;;;15.57;7.85;;;;;;;10.80;76.18;100715.00;4932259;28;20611;-61
2021/12/29 09:14:06;;;;;;;19.52;7.95;;;;;;;10.80;76.37;100715.88;4940386;28;20370;-61
2021/12/29 09:16:32;;;;;;;17.23;7.97;;;;;;;10.83;76.04;100708.13;4942591;28;20042;-59
2021/12/29 09:18:57;;;;;;;15.88;7.43;;;;;;;10.86;76.29;100704.63;4941997;28;20050;-60
2021/12/29 09:21:22;;;;;;;17.05;7.50;;;;;;;10.94;76.28;100697.78;4936308;28;20151;-60
2021/12/29 09:23:48;;;;;;;15.63;8.00;;;;;;;10.95;75.84;100707.34;4937181;28;20479;-62
2021/12/29 09:26:15;;;;;;;15.02;7.85;;;;;;;10.97;76.20;100711.72;4942154;28;20461;-60
2021/12/29 09:28:42;;;;;;;16.67;8.40;;;;;;;11.04;76.10;100715.25;4937537;28;20338;-60
2021/12/29 09:31:08;;;;;;;23.83;8.48;;;;;;;11.10;75.93;100719.66;4933858;28;20170;-59
2021/12/29 09:33:33;;;;;;;17.50;8.30;;;;;;;11.14;75.89;100727.53;4931265;28;20047;-60
2021/12/29 09:36:02;;;;;;;21.38;8.52;;;;;;;11.17;75.63;100727.53;4938203;28;20140;-59
2021/12/29 09:38:32;;;;;;;18.02;7.93;;;;;;;11.24;75.55;100726.72;4938121;28;20058;-60
2021/12/29 09:40:58;;;;;;;20.25;8.10;;;;;;;11.24;74.80;100724.13;4935271;28;20043;-60
2021/12/29 09:43:24;;;;;;;17.73;8.32;;;;;;;11.19;75.35;100711.91;4935780;28;20077;-60
2021/12/29 09:45:50;;;;;;;17.27;8.23;;;;;;;11.19;74.88;100712.78;4935359;28;20605;-59
2021/12/29 09:48:17;;;;;;;12.93;7.43;;;;;;;11.21;75.06;100705.84;4941690;28;20192;-59
2021/12/29 09:50:44;;;;;;;13.70;7.65;;;;;;;11.16;74.66;100706.69;4946033;28;20031;-59
2021/12/29 09:53:10;;;;;;;15.60;8.10;;;;;;;11.18;74.74;100702.31;4942513;28;20126;-60
2021/12/29 09:55:37;;;;;;;16.67;7.53;;;;;;;11.13;73.94;100691.84;4953839;28;20393;-60
2021/12/29 09:58:04;;;;;;;16.67;7.40;;;;;;;11.09;74.05;100692.69;4942490;28;20130;-60
2021/12/29 10:00:48;;;;;;;18.42;7.55;;;;;;;11.07;74.06;100691.81;4945865;28;20054;-60
2021/12/29 10:03:16;;;;;;;14.15;7.53;;;;;;;11.17;73.87;100692.75;4943670;28;20486;-60
2021/12/29 10:05:44;;;;;;;13.40;7.82;;;;;;;11.18;73.93;100686.66;4940280;28;20053;-60
2021/12/29 10:08:17;;;;;;;14.15;7.30;;;;;;;11.21;73.39;100679.75;4946211;28;20055;-61
2021/12/29 10:10:46;;;;;;;15.13;7.47;;;;;;;11.22;73.49;100671.03;4941566;28;20491;-60
2021/12/29 10:13:12;;;;;;;14.80;7.18;;;;;;;11.22;73.47;100664.97;4960609;28;20174;-59
2021/12/29 10:15:41;;;;;;;15.90;7.20;;;;;;;11.26;72.91;100667.59;4935979;28;20867;-60
2021/12/29 10:18:14;;;;;;;15.57;7.35;;;;;;;11.33;73.31;100665.91;4960274;28;20042;-60
2021/12/29 10:20:51;;;;;;;13.07;7.13;;;;;;;11.36;73.06;100666.81;4938318;28;20084;-60
2021/12/29 10:23:26;;;;;;;12.93;7.25;;;;;;;11.43;72.67;100657.28;4944643;28;20038;-60
2021/12/29 10:25:54;;;;;;;13.15;6.88;;;;;;;11.43;73.06;100662.50;4941624;28;20105;-62
2021/12/29 10:28:27;;;;;;;14.60;7.50;;;;;;;11.39;72.87;100659.00;4946305;28;20023;-60
2021/12/29 10:31:05;;;;;;;13.88;7.00;;;;;;;11.46;72.87;100669.50;4934761;28;20047;-60
2021/12/29 10:33:37;;;;;;;13.35;7.40;;;;;;;11.51;72.47;100676.47;4936650;28;20535;-60
2021/12/29 10:36:16;;;;;;;15.23;9.18;;;;;;;11.59;72.43;100671.28;4936781;28;20205;-60
2021/12/29 10:38:43;;;;;;;20.92;10.73;;;;;;;11.59;71.81;100674.78;4945448;28;20047;-60
2021/12/29 10:41:09;;;;;;;18.70;11.57;;;;;;;11.55;72.20;100673.00;4944937;28;20047;-60
2021/12/29 10:43:36;;;;;;;20.27;10.77;;;;;;;11.55;72.53;100682.59;4937454;28;20042;-62
2021/12/29 10:46:02;;;;;;;17.20;9.95;;;;;;;11.52;72.03;100691.28;4944185;28;20752;-60
2021/12/29 10:48:30;;;;;;;19.90;8.82;;;;;;;11.51;72.17;100683.44;4945405;28;20166;-60
2021/12/29 10:51:08;;;;;;;18.25;8.48;;;;;;;11.50;72.08;100672.13;4939330;28;20161;-60
2021/12/29 10:53:37;;;;;;;17.02;10.80;;;;;;;11.44;72.46;100668.59;4935632;28;20046;-61
2021/12/29 10:56:03;;;;;;;19.58;10.75;;;;;;;11.49;72.21;100678.19;4943672;28;20081;-60
2021/12/29 10:58:35;;;;;;;17.00;10.55;;;;;;;11.43;72.35;100667.72;4943042;28;20051;-60
2021/12/29 11:01:12;;;;;;;19.17;11.35;;;;;;;11.37;73.21;100671.16;4959196;28;20050;-61
2021/12/29 11:03:47;;;;;;;20.60;10.43;;;;;;;11.32;72.48;100654.59;4938297;28;20648;-59
2021/12/29 11:06:16;;;;;;;18.80;10.68;;;;;;;11.25;73.27;100633.66;4944726;28;20139;-61
2021/12/29 11:08:56;;;;;;;19.98;9.38;;;;;;;11.27;73.48;100618.91;4939934;28;20050;-61
2021/12/29 11:11:32;;;;;;;17.25;8.73;;;;;;;11.26;73.67;100623.25;4936962;28;20473;-62
2021/12/29 11:14:31;;;;;;;16.92;9.30;;;;;;;11.29;73.37;100630.19;4958637;28;20105;-61
2021/12/29 11:17:23;;;;;;;18.98;9.38;;;;;;;11.39;73.35;100632.03;4945872;28;20534;-59